Time,TemperatureF,DewpointF,PressureIn,WindDirection,WindDirectionDegrees,WindSpeedMPH,WindSpeedGustMPH,Humidity,HourlyPrecipIn,Conditions,Clouds,dailyrainin,SoftwareType,DateUTC
2013-01-06 16:12:00,51.0,34.0,30.07,NNE,15,0.0,4.0,52,0.00,,,0.00,,2013-01-06 21:12:00,
2013-01-06 16:33:00,51.0,33.0,30.07,WNW,294,2.0,8.0,50,0.00,,,0.00,,2013-01-06 21:33:00,
2013-01-06 16:43:00,51.0,33.0,30.07,WNW,294,2.0,8.0,50,0.00,,,0.00,,2013-01-06 21:43:00,
2013-01-06 16:53:00,51.0,33.0,30.07,NW,309,2.0,6.0,49,0.00,,,0.00,,2013-01-06 21:53:00,
2013-01-06 17:02:00,49.0,31.0,30.08,NW,307,3.0,7.0,50,0.00,,,0.00,,2013-01-06 22:02:00,
2013-01-06 17:12:00,49.0,31.0,30.08,NW,307,3.0,7.0,50,0.00,,,0.00,,2013-01-06 22:12:00,
2013-01-06 17:22:00,48.0,32.0,30.09,North,355,4.0,6.0,53,0.00,,,0.00,,2013-01-06 22:22:00,
2013-01-06 17:33:00,47.0,32.0,30.09,NNW,340,4.0,9.0,55,0.00,,,0.00,,2013-01-06 22:33:00,
2013-01-06 17:43:00,47.0,32.0,30.09,NNW,340,4.0,9.0,55,0.00,,,0.00,,2013-01-06 22:43:00,
2013-01-06 17:53:00,44.0,30.0,30.09,NNW,333,3.0,7.0,58,0.00,,,0.00,,2013-01-06 22:53:00,
2013-01-06 18:02:00,44.0,31.0,30.10,North,355,2.0,5.0,60,0.00,,,0.00,,2013-01-06 23:02:00,
2013-01-06 18:12:00,44.0,31.0,30.10,North,355,2.0,5.0,60,0.00,,,0.00,,2013-01-06 23:12:00,
2013-01-06 18:22:00,43.0,31.0,30.11,NNW,340,1.0,3.0,62,0.00,,,0.00,,2013-01-06 23:22:00,
2013-01-06 18:33:00,42.0,30.0,30.11,NW,311,1.0,7.0,63,0.00,,,0.00,,2013-01-06 23:33:00,
2013-01-06 18:43:00,42.0,30.0,30.11,NW,311,1.0,7.0,63,0.00,,,0.00,,2013-01-06 23:43:00,
2013-01-06 18:53:00,42.0,30.0,30.12,NW,324,1.0,7.0,63,0.00,,,0.00,,2013-01-06 23:53:00,
2013-01-06 19:02:00,42.0,30.0,30.14,NNW,344,2.0,5.0,63,0.00,,,0.00,,2013-01-07 00:02:00,
2013-01-06 19:12:00,42.0,30.0,30.14,NNW,344,2.0,5.0,63,0.00,,,0.00,,2013-01-07 00:12:00,
2013-01-06 19:23:00,42.0,30.0,30.15,NW,325,3.0,6.0,63,0.00,,,0.00,,2013-01-07 00:23:00,
2013-01-06 19:33:00,41.0,29.0,30.16,NW,306,4.0,7.0,63,0.00,,,0.00,,2013-01-07 00:33:00,
2013-01-06 19:43:00,41.0,29.0,30.16,NW,306,4.0,7.0,63,0.00,,,0.00,,2013-01-07 00:43:00,
2013-01-06 19:53:00,42.0,30.0,30.16,West,280,3.0,11.0,63,0.00,,,0.00,,2013-01-07 00:53:00,
2013-01-06 20:02:00,42.0,30.0,30.16,NW,317,2.0,6.0,62,0.00,,,0.00,,2013-01-07 01:02:00,
2013-01-06 20:12:00,42.0,30.0,30.16,NW,317,2.0,6.0,62,0.00,,,0.00,,2013-01-07 01:12:00,
2013-01-06 20:23:00,41.0,30.0,30.16,WNW,286,0.0,2.0,64,0.00,,,0.00,,2013-01-07 01:23:00,
2013-01-06 20:32:00,40.0,29.0,30.16,WNW,286,0.0,1.0,65,0.00,,,0.00,,2013-01-07 01:32:00,
2013-01-06 20:42:00,40.0,29.0,30.16,WNW,286,0.0,1.0,65,0.00,,,0.00,,2013-01-07 01:42:00,
2013-01-06 20:53:00,39.0,29.0,30.16,WNW,286,0.0,1.0,68,0.00,,,0.00,,2013-01-07 01:53:00,
2013-01-06 21:02:00,38.0,29.0,30.16,South,178,2.0,2.0,70,0.00,,,0.00,,2013-01-07 02:02:00,
2013-01-06 21:12:00,38.0,29.0,30.16,South,178,2.0,2.0,70,0.00,,,0.00,,2013-01-07 02:12:00,
2013-01-06 21:23:00,37.0,28.0,30.16,SE,137,0.0,1.0,71,0.00,,,0.00,,2013-01-07 02:23:00,
2013-01-06 21:32:00,36.0,28.0,30.16,SE,137,0.0,2.0,73,0.00,,,0.00,,2013-01-07 02:32:00,
2013-01-06 21:43:00,36.0,28.0,30.16,SE,137,0.0,2.0,73,0.00,,,0.00,,2013-01-07 02:43:00,
2013-01-06 21:53:00,34.0,28.0,30.17,SE,137,0.0,1.0,77,0.00,,,0.00,,2013-01-07 02:53:00,
2013-01-06 22:02:00,34.0,28.0,30.17,SE,146,1.0,2.0,78,0.00,,,0.00,,2013-01-07 03:02:00,
2013-01-06 22:12:00,34.0,28.0,30.17,SE,146,1.0,2.0,78,0.00,,,0.00,,2013-01-07 03:12:00,
2013-01-06 22:22:00,34.0,28.0,30.17,SE,146,1.0,2.0,78,0.00,,,0.00,,2013-01-07 03:22:00,
2013-01-06 22:33:00,35.0,29.0,30.18,SSE,152,0.0,2.0,79,0.00,,,0.00,,2013-01-07 03:33:00,
2013-01-06 22:43:00,35.0,29.0,30.18,SSE,152,0.0,2.0,79,0.00,,,0.00,,2013-01-07 03:43:00,
2013-01-06 22:53:00,34.0,28.0,30.18,East,95,1.0,2.0,79,0.00,,,0.00,,2013-01-07 03:53:00,
2013-01-06 23:02:00,38.0,29.0,30.18,NNE,19,1.0,5.0,71,0.00,,,0.00,,2013-01-07 04:02:00,
2013-01-06 23:12:00,38.0,29.0,30.18,NNE,19,1.0,5.0,71,0.00,,,0.00,,2013-01-07 04:12:00,
2013-01-06 23:22:00,39.0,29.0,30.19,NNE,19,0.0,2.0,68,0.00,,,0.00,,2013-01-07 04:22:00,
2013-01-06 23:32:00,40.0,29.0,30.19,NNW,333,1.0,6.0,65,0.00,,,0.00,,2013-01-07 04:32:00,
2013-01-06 23:42:00,40.0,29.0,30.19,NNW,333,1.0,6.0,65,0.00,,,0.00,,2013-01-07 04:42:00,
2013-01-06 23:52:00,41.0,30.0,30.20,NW,316,0.0,3.0,64,0.00,,,0.00,,2013-01-07 04:52:00,